Time;durP1;ratioP1;P1;durP2;ratioP2;P2;SDS_P1;SDS_P2;PMS_P1;PMS_P2;Temp;Humidity;BMP_temperature;BMP_pressure;BME280_temperature;BME280_humidity;BME280_pressure;Samples;Min_cycle;Max_cycle;Signal;HPM_P1;HPM_P2
2023/12/02 00:00:04;;;;;;;48.03;38.23;;;-0.80;99.90;;;;;;5063482;28;20036;-73
2023/12/02 00:02:29;;;;;;;50.30;37.97;;;-0.80;99.90;;;;;;5082027;28;20044;-73
2023/12/02 00:04:55;;;;;;;48.30;38.03;;;-0.80;99.90;;;;;;5086252;28;20081;-74
2023/12/02 00:07:24;;;;;;;49.50;38.10;;;-0.80;99.90;;;;;;5090963;28;20378;-73
2023/12/02 00:09:49;;;;;;;50.60;39.50;;;-0.80;99.90;;;;;;5083933;28;20040;-73
2023/12/02 00:12:15;;;;;;;54.67;42.00;;;-0.80;99.90;;;;;;5060713;28;20044;-73
2023/12/02 00:14:41;;;;;;;54.67;39.47;;;-0.80;99.90;;;;;;5084974;28;20410;-75
2023/12/02 00:17:07;;;;;;;49.30;38.50;;;-0.80;99.90;;;;;;5078148;28;20060;-76
2023/12/02 00:19:32;;;;;;;52.57;39.43;;;-0.80;99.90;;;;;;5071365;28;20044;-74
2023/12/02 00:21:58;;;;;;;51.70;39.33;;;-0.80;99.90;;;;;;5080336;28;20044;-73
2023/12/02 00:24:24;;;;;;;56.83;41.80;;;-0.80;99.90;;;;;;5066465;28;20044;-73
2023/12/02 00:26:50;;;;;;;55.03;41.03;;;-0.80;99.90;;;;;;5073010;28;20044;-73
2023/12/02 00:29:15;;;;;;;53.53;40.53;;;-0.80;99.90;;;;;;5080851;28;20039;-74
2023/12/02 00:31:41;;;;;;;51.53;39.93;;;-0.80;99.90;;;;;;5066903;28;20151;-73
2023/12/02 00:34:07;;;;;;;50.43;38.23;;;-0.80;99.90;;;;;;5084036;28;20040;-74
2023/12/02 00:36:33;;;;;;;50.43;37.97;;;-0.80;99.90;;;;;;5081643;28;20084;-73
2023/12/02 00:38:58;;;;;;;51.27;39.03;;;-0.80;99.90;;;;;;5078508;28;20056;-74
2023/12/02 00:41:24;;;;;;;56.00;39.90;;;-0.80;99.90;;;;;;5081440;28;20128;-72
2023/12/02 00:43:50;;;;;;;75.07;49.10;;;-0.80;99.90;;;;;;5076422;28;20039;-75
2023/12/02 00:46:16;;;;;;;58.37;43.30;;;-0.80;99.90;;;;;;5067642;28;20593;-76
2023/12/02 00:48:42;;;;;;;53.57;39.50;;;-0.80;99.90;;;;;;5067792;28;20090;-76
2023/12/02 00:51:08;;;;;;;58.50;42.33;;;-0.80;99.90;;;;;;5069905;28;20048;-73
2023/12/02 00:53:34;;;;;;;51.67;39.03;;;-0.80;99.90;;;;;;5064217;28;20051;-73
2023/12/02 00:56:03;;;;;;;61.40;42.27;;;-0.80;99.90;;;;;;5063596;28;20043;-72
2023/12/02 00:58:28;;;;;;;52.27;39.63;;;-0.80;99.90;;;;;;5082018;28;20255;-73
2023/12/02 01:00:54;;;;;;;51.43;39.57;;;-0.90;99.90;;;;;;5084631;28;20043;-73
2023/12/02 01:03:20;;;;;;;57.30;41.03;;;-0.80;99.90;;;;;;5081079;28;20050;-73
2023/12/02 01:05:49;;;;;;;58.37;42.03;;;-0.70;99.90;;;;;;5078267;28;20079;-73
2023/12/02 01:08:15;;;;;;;66.40;44.20;;;-0.80;99.90;;;;;;5063752;28;20032;-73
2023/12/02 01:10:41;;;;;;;63.43;44.63;;;-0.80;99.90;;;;;;5068821;28;20090;-73
2023/12/02 01:13:06;;;;;;;58.57;43.17;;;-0.80;99.90;;;;;;5057921;28;20376;-74
2023/12/02 01:15:32;;;;;;;64.17;42.93;;;-0.80;99.90;;;;;;5095625;28;20039;-73
2023/12/02 01:17:58;;;;;;;61.20;42.80;;;-0.80;99.90;;;;;;5062220;28;20131;-75
2023/12/02 01:20:23;;;;;;;52.87;40.40;;;-0.70;99.90;;;;;;5082976;28;20039;-73
2023/12/02 01:22:49;;;;;;;53.33;39.87;;;-0.80;99.90;;;;;;5083468;28;20051;-73
2023/12/02 01:25:15;;;;;;;63.30;44.07;;;-0.70;99.90;;;;;;5081149;28;20075;-73
2023/12/02 01:27:41;;;;;;;55.80;41.57;;;-0.70;99.90;;;;;;5079433;28;20050;-73
2023/12/02 01:30:07;;;;;;;53.50;40.97;;;-0.70;99.90;;;;;;5067096;28;20441;-73
2023/12/02 01:32:32;;;;;;;53.80;41.43;;;-0.70;99.90;;;;;;5062005;28;20077;-73
2023/12/02 01:34:58;;;;;;;54.93;41.13;;;-0.70;99.90;;;;;;5079706;28;20474;-73
2023/12/02 01:37:24;;;;;;;52.90;40.63;;;-0.70;99.90;;;;;;5079086;28;20503;-73
2023/12/02 01:39:50;;;;;;;52.60;40.87;;;-0.60;99.90;;;;;;5063183;28;20040;-74
2023/12/02 01:42:15;;;;;;;51.13;39.53;;;-0.60;99.90;;;;;;5065437;28;20476;-73
2023/12/02 01:44:41;;;;;;;53.83;40.43;;;-0.60;99.90;;;;;;5077988;28;20056;-73
2023/12/02 01:47:07;;;;;;;58.93;42.50;;;-0.60;99.90;;;;;;5088705;28;20043;-73
2023/12/02 01:49:33;;;;;;;58.47;43.93;;;-0.60;99.90;;;;;;5073222;28;20040;-73
2023/12/02 01:51:59;;;;;;;56.53;41.90;;;-0.60;99.90;;;;;;5061254;28;20100;-73
2023/12/02 01:54:25;;;;;;;62.33;43.17;;;-0.60;99.90;;;;;;5085116;28;20032;-73
2023/12/02 01:56:51;;;;;;;57.17;41.43;;;-0.60;99.90;;;;;;5078790;28;20619;-73
2023/12/02 01:59:18;;;;;;;59.37;43.30;;;-0.60;99.90;;;;;;5066625;28;20046;-73
2023/12/02 02:01:44;;;;;;;57.50;40.70;;;-0.60;99.90;;;;;;5076950;28;20098;-73
2023/12/02 02:04:09;;;;;;;56.40;40.77;;;-0.70;99.90;;;;;;5090821;28;20063;-73
2023/12/02 02:06:35;;;;;;;52.80;39.43;;;-0.70;99.90;;;;;;5080341;28;20040;-73
2023/12/02 02:09:02;;;;;;;60.57;43.07;;;-0.60;99.90;;;;;;5059629;28;20044;-73
2023/12/02 02:11:28;;;;;;;51.20;38.60;;;-0.60;99.90;;;;;;5081835;28;20291;-73
2023/12/02 02:13:54;;;;;;;51.70;37.87;;;-0.60;99.90;;;;;;5066171;28;20070;-73
2023/12/02 02:16:19;;;;;;;53.57;38.77;;;-0.60;99.90;;;;;;5077638;28;20039;-73
2023/12/02 02:18:45;;;;;;;54.83;41.10;;;-0.60;99.90;;;;;;5076325;28;20094;-73
2023/12/02 02:21:16;;;;;;;56.30;41.27;;;-0.60;99.90;;;;;;5080247;28;20044;-73
2023/12/02 02:23:41;;;;;;;;;;;-0.60;99.90;;;;;;5080083;28;20056;-73
2023/12/02 02:26:07;;;;;;;60.43;40.87;;;-0.70;99.90;;;;;;5078431;28;19935;-73
2023/12/02 02:28:33;;;;;;;62.53;41.73;;;-0.60;99.90;;;;;;5080163;28;20418;-76
2023/12/02 02:30:58;;;;;;;57.63;39.63;;;-0.60;99.90;;;;;;5063521;28;20514;-73
2023/12/02 02:33:24;;;;;;;50.70;37.97;;;-0.60;99.90;;;;;;5049383;28;20039;-73
2023/12/02 02:35:50;;;;;;;59.30;41.00;;;-0.70;99.90;;;;;;5078133;28;20040;-73
2023/12/02 02:38:16;;;;;;;56.10;40.30;;;-0.60;99.90;;;;;;5079124;28;20044;-76
2023/12/02 02:40:41;;;;;;;57.80;40.23;;;-0.60;99.90;;;;;;5074700;28;20053;-73
2023/12/02 02:43:07;;;;;;;55.80;40.90;;;-0.60;99.90;;;;;;5081613;28;20036;-73
2023/12/02 02:45:33;;;;;;;50.03;38.03;;;-0.70;99.90;;;;;;5063196;28;20065;-73
2023/12/02 02:47:59;;;;;;;59.37;40.33;;;-0.60;99.90;;;;;;5080542;28;20052;-73
2023/12/02 02:50:24;;;;;;;62.33;40.43;;;-0.60;99.90;;;;;;5082291;28;20375;-73
2023/12/02 02:52:50;;;;;;;61.10;41.23;;;-0.70;99.90;;;;;;5064590;28;20048;-74
2023/12/02 02:55:16;;;;;;;61.20;42.23;;;-0.70;99.90;;;;;;5080406;28;20264;-73
2023/12/02 02:57:42;;;;;;;57.80;39.43;;;-0.70;99.90;;;;;;5065663;28;20060;-73
2023/12/02 03:00:11;;;;;;;48.40;38.20;;;-0.70;99.90;;;;;;5079544;28;20092;-73
2023/12/02 03:02:37;;;;;;;47.70;37.17;;;-0.70;99.90;;;;;;5072498;28;20052;-72
2023/12/02 03:05:04;;;;;;;52.40;38.90;;;-0.70;99.90;;;;;;5069461;28;20482;-73
2023/12/02 03:07:30;;;;;;;57.03;39.93;;;-0.70;99.90;;;;;;5059802;28;20056;-73
2023/12/02 03:09:56;;;;;;;48.13;37.23;;;-0.70;99.90;;;;;;5063365;28;20093;-73
2023/12/02 03:12:23;;;;;;;50.90;38.07;;;-0.60;99.90;;;;;;5069956;28;20044;-73
2023/12/02 03:14:50;;;;;;;54.20;38.67;;;-0.60;99.90;;;;;;5075184;28;20121;-73
2023/12/02 03:17:16;;;;;;;56.87;39.27;;;-0.70;99.90;;;;;;5057261;28;20028;-73
2023/12/02 03:19:41;;;;;;;58.73;39.83;;;-0.70;99.90;;;;;;5075463;28;20122;-73
2023/12/02 03:22:07;;;;;;;59.00;40.17;;;-0.70;99.90;;;;;;5077500;28;20032;-73
2023/12/02 03:24:33;;;;;;;51.90;37.23;;;-0.70;99.90;;;;;;5079052;28;20048;-73
2023/12/02 03:26:59;;;;;;;51.17;37.23;;;-0.70;99.90;;;;;;5084819;28;20486;-73
2023/12/02 03:29:24;;;;;;;47.97;36.30;;;-0.70;99.90;;;;;;5077207;28;20048;-76
2023/12/02 03:31:50;;;;;;;50.73;37.73;;;-0.70;99.90;;;;;;5086608;28;20094;-73
2023/12/02 03:34:16;;;;;;;48.83;36.37;;;-0.70;99.90;;;;;;5079766;28;20433;-73
2023/12/02 03:36:41;;;;;;;48.37;37.30;;;-0.70;99.90;;;;;;5081845;28;20316;-73
2023/12/02 03:39:07;;;;;;;49.53;37.70;;;-0.70;99.90;;;;;;5080935;28;20414;-73
2023/12/02 03:41:33;;;;;;;43.93;35.40;;;-0.70;99.90;;;;;;5062893;28;20590;-75
2023/12/02 03:43:58;;;;;;;56.57;38.57;;;-0.70;99.90;;;;;;5081444;28;20079;-73
2023/12/02 03:46:28;;;;;;;55.80;39.37;;;-0.70;99.90;;;;;;5085137;28;20039;-73
2023/12/02 03:48:54;;;;;;;54.47;38.80;;;-0.70;99.90;;;;;;5082584;28;20056;-76
2023/12/02 03:51:19;;;;;;;50.07;37.47;;;-0.70;99.90;;;;;;5079183;28;20044;-75
2023/12/02 03:53:45;;;;;;;51.43;37.83;;;-0.70;99.90;;;;;;5085619;28;20510;-75
2023/12/02 03:56:11;;;;;;;50.63;37.57;;;-0.80;99.90;;;;;;5061598;28;20051;-75
2023/12/02 03:58:37;;;;;;;48.57;37.27;;;-0.80;99.90;;;;;;5080422;28;20082;-75
2023/12/02 04:01:03;;;;;;;48.03;36.07;;;-0.80;99.90;;;;;;5083172;28;20075;-75
2023/12/02 04:03:29;;;;;;;51.27;37.10;;;-0.80;99.90;;;;;;5082886;28;20044;-74
2023/12/02 04:05:55;;;;;;;48.50;36.57;;;-0.80;99.90;;;;;;5084356;28;20493;-75
2023/12/02 04:08:21;;;;;;;49.37;36.33;;;-0.80;99.90;;;;;;5084126;28;20538;-75
2023/12/02 04:10:47;;;;;;;45.73;35.43;;;-0.80;99.90;;;;;;5085331;28;20068;-76
2023/12/02 04:13:13;;;;;;;44.20;34.20;;;-0.80;99.90;;;;;;5087377;28;20048;-75
2023/12/02 04:15:38;;;;;;;48.83;37.10;;;-0.70;99.90;;;;;;5063193;28;20135;-75
2023/12/02 04:18:04;;;;;;;45.53;34.67;;;-0.80;99.90;;;;;;5075968;28;20073;-75
2023/12/02 04:20:30;;;;;;;59.50;40.03;;;-0.80;99.90;;;;;;5082183;28;20549;-75
2023/12/02 04:22:59;;;;;;;57.83;39.77;;;-0.80;99.90;;;;;;5082888;28;20099;-73
2023/12/02 04:25:24;;;;;;;53.00;39.07;;;-0.80;99.90;;;;;;5066950;28;20040;-73
2023/12/02 04:27:53;;;;;;;51.97;37.40;;;-0.80;99.90;;;;;;5082596;28;20407;-72
2023/12/02 04:30:19;;;;;;;47.27;36.03;;;-0.80;99.90;;;;;;5078101;28;20039;-73
2023/12/02 04:32:45;;;;;;;47.50;37.17;;;-0.80;99.90;;;;;;5068230;28;20398;-73
2023/12/02 04:35:10;;;;;;;50.70;37.97;;;-0.80;99.90;;;;;;5072999;28;20448;-73
2023/12/02 04:37:36;;;;;;;48.20;37.20;;;-0.80;99.90;;;;;;5062951;28;20044;-73
2023/12/02 04:40:04;;;;;;;51.23;38.53;;;-0.80;99.90;;;;;;5085987;28;20040;-73
2023/12/02 04:42:30;;;;;;;50.53;37.43;;;-0.80;99.90;;;;;;5081749;28;20036;-74
2023/12/02 04:44:56;;;;;;;51.27;38.70;;;-0.80;99.90;;;;;;5081141;28;20037;-73
2023/12/02 04:47:22;;;;;;;49.80;38.13;;;-0.80;99.90;;;;;;5082408;28;20036;-73
2023/12/02 04:49:47;;;;;;;58.70;41.37;;;-0.80;99.90;;;;;;5081549;28;20122;-73
2023/12/02 04:52:13;;;;;;;49.53;37.37;;;-0.70;99.90;;;;;;5090466;28;20069;-73
2023/12/02 04:54:39;;;;;;;58.33;41.23;;;-0.70;99.90;;;;;;5070682;28;20074;-73
2023/12/02 04:57:06;;;;;;;55.40;39.87;;;-0.70;99.90;;;;;;5082182;28;20071;-73
2023/12/02 04:59:31;;;;;;;59.37;41.80;;;-0.70;99.90;;;;;;5083972;28;20118;-73
2023/12/02 05:01:57;;;;;;;54.23;39.63;;;-0.80;99.90;;;;;;5059754;28;20147;-74
2023/12/02 05:04:24;;;;;;;52.13;38.57;;;-0.80;99.90;;;;;;5079991;28;20036;-72
2023/12/02 05:06:51;;;;;;;50.60;38.43;;;-0.80;99.90;;;;;;5081503;28;20502;-75
2023/12/02 05:09:17;;;;;;;48.87;37.10;;;-0.80;99.90;;;;;;5068279;28;20051;-75
2023/12/02 05:11:44;;;;;;;49.23;38.50;;;-0.80;99.90;;;;;;5067654;28;20045;-75
2023/12/02 05:14:10;;;;;;;58.57;39.70;;;-0.60;99.90;;;;;;5078235;28;20045;-75
2023/12/02 05:16:40;;;;;;;49.93;38.33;;;-0.80;99.90;;;;;;5072859;28;20120;-75
2023/12/02 05:19:06;;;;;;;60.10;41.97;;;-0.70;99.90;;;;;;5070515;28;20032;-75
2023/12/02 05:21:31;;;;;;;55.93;40.30;;;-0.80;99.90;;;;;;5065961;28;20552;-75
2023/12/02 05:23:57;;;;;;;62.13;42.33;;;-0.80;99.90;;;;;;5066744;28;20053;-75
2023/12/02 05:26:23;;;;;;;55.77;40.37;;;-0.80;99.90;;;;;;5053893;28;20067;-75
2023/12/02 05:28:48;;;;;;;58.93;41.47;;;-0.90;99.90;;;;;;5068925;28;20135;-75
2023/12/02 05:31:14;;;;;;;57.27;41.53;;;-0.80;99.90;;;;;;5073578;28;20403;-75
2023/12/02 05:33:40;;;;;;;61.83;42.43;;;-0.90;99.90;;;;;;5055204;28;20469;-75
2023/12/02 05:36:08;;;;;;;60.87;41.37;;;-0.90;99.90;;;;;;5071623;28;20040;-75
2023/12/02 05:38:34;;;;;;;57.97;40.13;;;-0.80;99.90;;;;;;5063157;28;20219;-77
2023/12/02 05:41:03;;;;;;;62.23;42.83;;;-0.80;99.90;;;;;;5056786;28;20599;-76
2023/12/02 05:43:29;;;;;;;53.17;38.67;;;-0.80;99.90;;;;;;5072762;28;20143;-76
2023/12/02 05:45:55;;;;;;;57.83;40.73;;;-0.90;99.90;;;;;;5085146;28;20048;-75
2023/12/02 05:48:21;;;;;;;54.83;40.43;;;-0.90;99.90;;;;;;5076598;28;20561;-75
2023/12/02 05:50:47;;;;;;;58.07;40.83;;;-0.80;99.90;;;;;;5082648;28;20075;-75
2023/12/02 05:53:13;;;;;;;61.57;41.73;;;-0.90;99.90;;;;;;5054962;28;20105;-75
2023/12/02 05:55:38;;;;;;;61.27;41.03;;;-0.90;99.90;;;;;;5066816;28;20051;-75
2023/12/02 05:58:04;;;;;;;60.37;42.70;;;-0.90;99.90;;;;;;5053536;28;20518;-75
2023/12/02 06:00:30;;;;;;;61.63;42.00;;;-0.80;99.90;;;;;;5063304;28;20040;-75
2023/12/02 06:02:55;;;;;;;67.00;43.73;;;-0.90;99.90;;;;;;5062404;28;20041;-75
2023/12/02 06:05:22;;;;;;;67.23;43.47;;;-0.80;99.90;;;;;;5076822;28;20044;-76
2023/12/02 06:07:47;;;;;;;64.50;43.37;;;-0.90;99.90;;;;;;5078806;28;20048;-75
2023/12/02 06:10:13;;;;;;;64.67;42.43;;;-0.90;99.90;;;;;;5049961;28;20093;-75
2023/12/02 06:12:39;;;;;;;65.13;43.23;;;-0.90;99.90;;;;;;5057482;28;20047;-75
2023/12/02 06:15:06;;;;;;;62.33;41.67;;;-0.90;99.90;;;;;;5070445;28;20411;-75
2023/12/02 06:17:32;;;;;;;61.23;41.77;;;-0.90;99.90;;;;;;5053384;28;20043;-75
2023/12/02 06:19:58;;;;;;;64.23;42.77;;;-0.90;99.90;;;;;;5076634;28;20530;-76
2023/12/02 06:22:24;;;;;;;57.00;41.33;;;-0.90;99.90;;;;;;5067281;28;20036;-75
2023/12/02 06:24:50;;;;;;;67.30;42.80;;;-0.90;99.90;;;;;;5075746;28;20044;-76
2023/12/02 06:27:15;;;;;;;65.53;43.33;;;-0.90;99.90;;;;;;5048170;28;20048;-75
2023/12/02 06:29:41;;;;;;;59.00;43.13;;;-0.90;99.90;;;;;;5079278;28;20135;-75
2023/12/02 06:32:07;;;;;;;67.73;46.00;;;-0.90;99.90;;;;;;5065574;28;20090;-75
2023/12/02 06:34:33;;;;;;;65.70;44.63;;;-0.90;99.90;;;;;;5061628;28;20032;-75
2023/12/02 06:36:59;;;;;;;61.73;42.37;;;-0.90;99.90;;;;;;5070361;28;20044;-75
2023/12/02 06:39:25;;;;;;;55.57;40.90;;;-1.00;99.90;;;;;;5079998;28;20033;-75
2023/12/02 06:41:54;;;;;;;54.73;40.50;;;-0.90;99.90;;;;;;5074403;28;20075;-76
2023/12/02 06:44:20;;;;;;;59.50;42.77;;;-0.90;99.90;;;;;;5077844;28;20040;-75
2023/12/02 06:46:45;;;;;;;56.03;41.10;;;-0.90;99.90;;;;;;5074985;28;20182;-76
2023/12/02 06:49:11;;;;;;;62.67;43.63;;;-0.90;99.90;;;;;;5089696;28;20410;-75
2023/12/02 06:51:37;;;;;;;67.60;43.93;;;-0.90;99.90;;;;;;5067025;28;20445;-75
2023/12/02 06:54:03;;;;;;;60.43;40.63;;;-0.90;99.90;;;;;;5067586;28;20142;-75
2023/12/02 06:56:29;;;;;;;65.43;42.97;;;-1.00;99.90;;;;;;5077742;28;20044;-75
2023/12/02 06:58:54;;;;;;;63.03;42.53;;;-0.80;99.90;;;;;;5077923;28;20570;-75
2023/12/02 07:01:28;;;;;;;70.37;43.90;;;-0.90;99.90;;;;;;5074049;28;20044;-76
2023/12/02 07:03:59;;;;;;;65.53;42.80;;;-0.90;99.90;;;;;;5086819;28;20123;-75
2023/12/02 07:06:25;;;;;;;68.87;43.30;;;-0.90;99.90;;;;;;5057633;28;20047;-75
2023/12/02 07:08:52;;;;;;;64.07;42.70;;;-0.90;99.90;;;;;;5052163;28;20056;-76
2023/12/02 07:11:18;;;;;;;74.50;45.20;;;-0.90;99.90;;;;;;5081113;28;20398;-75
2023/12/02 07:13:44;;;;;;;60.13;42.47;;;-0.90;99.90;;;;;;5067039;28;20044;-77
2023/12/02 07:16:11;;;;;;;70.10;44.53;;;-0.90;99.90;;;;;;5085897;28;20514;-73
2023/12/02 07:18:37;;;;;;;72.13;45.03;;;-0.90;99.90;;;;;;5084386;28;20402;-73
2023/12/02 07:21:04;;;;;;;67.83;44.03;;;-0.90;99.90;;;;;;5069251;28;20522;-73
2023/12/02 07:23:29;;;;;;;73.27;44.53;;;-0.90;99.90;;;;;;5066418;28;20048;-73
2023/12/02 07:25:56;;;;;;;71.77;44.57;;;-0.90;99.90;;;;;;5065705;28;20074;-73
2023/12/02 07:28:22;;;;;;;68.00;44.13;;;-1.00;99.90;;;;;;5065993;28;20125;-73
2023/12/02 07:30:48;;;;;;;65.60;42.63;;;-0.90;99.90;;;;;;5084528;28;20048;-75
2023/12/02 07:33:15;;;;;;;65.97;42.60;;;-1.00;99.90;;;;;;5081073;28;20036;-74
2023/12/02 07:35:41;;;;;;;62.87;42.37;;;-0.90;99.90;;;;;;5082617;28;20044;-74
2023/12/02 07:38:06;;;;;;;60.67;42.07;;;-0.90;99.90;;;;;;5068175;28;20062;-74
2023/12/02 07:40:32;;;;;;;70.90;43.67;;;-0.90;99.90;;;;;;5065706;28;20525;-75
2023/12/02 07:42:58;;;;;;;59.93;42.07;;;-0.90;99.90;;;;;;5070712;28;20098;-77
2023/12/02 07:45:24;;;;;;;56.43;38.73;;;-0.90;99.90;;;;;;5066478;28;20070;-77
2023/12/02 07:47:49;;;;;;;66.73;42.73;;;-1.00;99.90;;;;;;5084238;28;20056;-78
2023/12/02 07:50:15;;;;;;;60.57;41.70;;;-0.90;99.90;;;;;;5082139;28;20036;-78
2023/12/02 07:52:42;;;;;;;69.43;43.07;;;-0.90;99.90;;;;;;5064970;28;20452;-78
2023/12/02 07:55:08;;;;;;;58.63;41.20;;;-0.90;99.90;;;;;;5090660;28;20508;-77
2023/12/02 07:57:33;;;;;;;69.37;44.27;;;-0.90;99.90;;;;;;5067786;28;20080;-76
2023/12/02 07:59:59;;;;;;;60.00;42.50;;;-0.90;99.90;;;;;;5080530;28;20040;-76
2023/12/02 08:02:26;;;;;;;55.47;40.17;;;-0.90;99.90;;;;;;5083479;28;20046;-76
2023/12/02 08:04:52;;;;;;;67.83;45.17;;;-0.90;99.90;;;;;;5078964;28;20110;-76
2023/12/02 08:07:18;;;;;;;74.33;46.33;;;-0.90;99.90;;;;;;5091197;28;20035;-76
2023/12/02 08:09:44;;;;;;;69.90;43.33;;;-0.90;99.90;;;;;;5083721;28;20048;-76
2023/12/02 08:12:10;;;;;;;70.27;44.53;;;-0.90;99.90;;;;;;5089952;28;20044;-76
2023/12/02 08:14:36;;;;;;;63.07;42.33;;;-0.80;99.90;;;;;;5097504;28;20039;-76
2023/12/02 08:17:02;;;;;;;68.57;44.03;;;-0.80;99.90;;;;;;5081311;28;20096;-76
2023/12/02 08:19:28;;;;;;;74.80;44.67;;;-0.80;99.90;;;;;;5087838;28;20418;-76
2023/12/02 08:21:54;;;;;;;75.63;45.77;;;-0.80;99.90;;;;;;5068015;28;20482;-77
2023/12/02 08:24:20;;;;;;;67.43;43.37;;;-0.80;99.90;;;;;;5077699;28;20065;-76
2023/12/02 08:26:49;;;;;;;70.40;45.47;;;-0.80;99.90;;;;;;5069255;28;20138;-76
2023/12/02 08:29:15;;;;;;;74.37;47.00;;;-0.80;99.90;;;;;;5066134;28;20524;-76
2023/12/02 08:31:41;;;;;;;69.00;43.77;;;-0.80;99.90;;;;;;5083717;28;20087;-76
2023/12/02 08:34:07;;;;;;;73.50;45.87;;;-0.70;99.90;;;;;;5064695;28;20044;-76
2023/12/02 08:36:32;;;;;;;71.73;44.63;;;-0.80;99.90;;;;;;5085327;28;20131;-76
2023/12/02 08:38:58;;;;;;;70.67;43.23;;;-0.80;99.90;;;;;;5083413;28;20101;-76
2023/12/02 08:41:24;;;;;;;73.93;45.70;;;-0.70;99.90;;;;;;5079164;28;20035;-76
2023/12/02 08:43:49;;;;;;;75.47;45.00;;;-0.70;99.90;;;;;;5086790;28;20112;-73
2023/12/02 08:46:16;;;;;;;71.90;45.70;;;-0.70;99.90;;;;;;5080393;28;20096;-73
2023/12/02 08:48:42;;;;;;;67.90;43.07;;;-0.70;99.90;;;;;;5072293;28;20047;-74
2023/12/02 08:51:08;;;;;;;78.70;45.20;;;-0.70;99.90;;;;;;5083615;28;20043;-73
2023/12/02 08:53:34;;;;;;;75.23;46.90;;;-0.70;99.90;;;;;;5065311;28;20032;-73
2023/12/02 08:56:00;;;;;;;70.03;45.03;;;-0.70;99.90;;;;;;5063566;28;20047;-73
2023/12/02 08:58:26;;;;;;;71.50;46.47;;;-0.60;99.90;;;;;;5081705;28;20070;-73
2023/12/02 09:00:52;;;;;;;67.37;44.47;;;-0.60;99.90;;;;;;5082239;28;20044;-74
2023/12/02 09:03:18;;;;;;;64.40;43.83;;;-0.60;99.90;;;;;;5065665;28;20045;-74
2023/12/02 09:05:44;;;;;;;69.53;45.67;;;-0.60;99.90;;;;;;5070612;28;20059;-74
2023/12/02 09:08:10;;;;;;;67.63;44.83;;;-0.50;99.90;;;;;;5093108;28;20197;-74
2023/12/02 09:10:36;;;;;;;63.33;43.07;;;-0.50;99.90;;;;;;5083901;28;20411;-74
2023/12/02 09:13:32;;;;;;;72.27;45.97;;;-0.50;99.90;;;;;;5067689;28;20040;-74
2023/12/02 09:15:58;;;;;;;71.63;45.93;;;-0.50;99.90;;;;;;5062363;28;20060;-74
2023/12/02 09:18:44;;;;;;;66.90;43.40;;;-0.40;99.90;;;;;;5080780;28;20055;-74
2023/12/02 09:21:41;;;;;;;65.60;43.70;;;-0.40;99.90;;;;;;5091148;28;20047;-74
2023/12/02 09:24:34;;;;;;;78.83;46.67;;;-0.40;99.90;;;;;;5061464;28;20147;-76
2023/12/02 09:27:01;;;;;;;67.73;44.20;;;-0.40;99.90;;;;;;5064475;28;20079;-76
2023/12/02 09:29:38;;;;;;;68.50;43.73;;;-0.40;99.90;;;;;;5060805;28;20037;-76
2023/12/02 09:32:22;;;;;;;77.23;47.00;;;-0.40;99.90;;;;;;5067720;28;20406;-74
2023/12/02 09:34:56;;;;;;;66.60;44.17;;;-0.40;99.90;;;;;;5066683;28;20051;-74
2023/12/02 09:37:43;;;;;;;75.20;46.07;;;-0.40;99.90;;;;;;5080981;28;20494;-74
2023/12/02 09:40:21;;;;;;;73.10;46.87;;;-0.30;99.90;;;;;;5076247;28;20044;-74
2023/12/02 09:43:10;;;;;;;72.77;45.77;;;-0.30;99.90;;;;;;5085963;28;20040;-73
2023/12/02 09:45:44;;;;;;;75.70;46.03;;;-0.30;99.90;;;;;;5079248;28;20044;-73
2023/12/02 09:48:19;;;;;;;71.20;45.67;;;-0.30;99.90;;;;;;5062316;28;20544;-74
2023/12/02 09:51:22;;;;;;;65.70;43.43;;;-0.20;99.90;;;;;;5077453;28;20529;-74
2023/12/02 09:54:01;;;;;;;71.33;44.53;;;-0.20;99.90;;;;;;5042576;28;20044;-74
2023/12/02 09:56:37;;;;;;;76.63;46.67;;;-0.10;99.90;;;;;;5075565;28;20051;-75
2023/12/02 09:59:28;;;;;;;72.83;46.47;;;-0.20;99.90;;;;;;5078028;28;20044;-74
2023/12/02 10:02:08;;;;;;;70.22;45.15;;;0.00;99.90;;;;;;5081679;28;20450;-74
2023/12/02 10:05:04;;;;;;;73.03;47.10;;;0.00;99.90;;;;;;5086870;28;20402;-74
2023/12/02 10:08:00;;;;;;;73.10;46.87;;;0.10;99.90;;;;;;5079198;28;20048;-74
2023/12/02 10:10:32;;;;;;;71.50;46.97;;;0.10;99.90;;;;;;5070831;28;20082;-76
2023/12/02 10:13:32;;;;;;;74.77;47.40;;;0.20;99.90;;;;;;5075516;28;20502;-76
2023/12/02 10:16:05;;;;;;;73.15;47.15;;;0.20;99.90;;;;;;5078231;28;20048;-74
2023/12/02 10:18:37;;;;;;;73.87;46.83;;;0.30;99.90;;;;;;5069187;28;20054;-74
2023/12/02 10:21:09;;;;;;;69.53;46.87;;;0.40;99.90;;;;;;5073064;28;20244;-74
2023/12/02 10:23:48;;;;;;;71.77;44.87;;;0.50;99.90;;;;;;5062878;28;20051;-74
2023/12/02 10:26:23;;;;;;;73.35;46.83;;;0.60;99.90;;;;;;5083565;28;20055;-75
2023/12/02 10:29:17;;;;;;;72.70;47.20;;;0.60;99.90;;;;;;5079460;28;20051;-75
2023/12/02 10:32:03;;;;;;;71.07;45.60;;;0.70;99.90;;;;;;5082407;28;20076;-75
2023/12/02 10:34:37;;;;;;;68.22;44.58;;;0.70;99.90;;;;;;5062886;28;20052;-77
2023/12/02 10:37:04;;;;;;;68.10;44.03;;;0.70;99.90;;;;;;5079588;28;20081;-75
2023/12/02 10:39:40;;;;;;;69.40;44.53;;;0.80;99.90;;;;;;5074061;28;20040;-75
2023/12/02 10:42:14;;;;;;;65.18;43.90;;;0.80;99.90;;;;;;5072929;28;20494;-75
2023/12/02 10:44:43;;;;;;;61.88;42.78;;;0.90;99.90;;;;;;5070750;28;20050;-75
2023/12/02 10:47:11;;;;;;;62.45;42.85;;;0.90;99.90;;;;;;5081454;28;20043;-75
2023/12/02 10:49:38;;;;;;;61.97;42.28;;;0.90;99.90;;;;;;5062444;28;20118;-76
2023/12/02 10:52:07;;;;;;;59.78;41.00;;;0.90;99.90;;;;;;5081159;28;20055;-75
2023/12/02 10:54:38;;;;;;;66.85;43.47;;;1.00;99.90;;;;;;5069766;28;20055;-75
2023/12/02 10:57:07;;;;;;;59.30;41.35;;;1.00;99.90;;;;;;5081036;28;20052;-76
2023/12/02 10:59:47;;;;;;;58.50;40.85;;;1.00;99.90;;;;;;5063302;28;20093;-75
2023/12/02 11:02:21;;;;;;;;;;;1.10;99.90;;;;;;5084798;28;20048;-76
2023/12/02 11:04:53;;;;;;;60.00;41.80;;;1.10;99.90;;;;;;5078778;28;19932;-75
2023/12/02 11:07:24;;;;;;;56.45;39.88;;;1.10;99.90;;;;;;5081694;28;20127;-75
2023/12/02 11:10:00;;;;;;;63.35;42.13;;;1.20;99.90;;;;;;5065381;28;20395;-76
2023/12/02 11:12:40;;;;;;;54.85;37.65;;;1.20;99.90;;;;;;5078425;28;20043;-76
2023/12/02 11:15:11;;;;;;;60.13;39.95;;;1.20;99.90;;;;;;5079639;28;20044;-75
2023/12/02 11:18:04;;;;;;;56.88;39.88;;;1.20;99.90;;;;;;5078715;28;20074;-76
2023/12/02 11:20:39;;;;;;;52.33;37.23;;;1.30;99.90;;;;;;5084847;28;20037;-75
2023/12/02 11:23:42;;;;;;;57.13;39.80;;;1.30;99.90;;;;;;5065958;28;20055;-75
2023/12/02 11:26:15;;;;;;;53.20;38.28;;;1.30;99.90;;;;;;5085699;28;20141;-76
2023/12/02 11:29:03;;;;;;;54.92;39.08;;;1.40;99.90;;;;;;5082894;28;21068;-76
2023/12/02 11:31:43;;;;;;;53.63;37.08;;;1.40;99.90;;;;;;5067005;28;20043;-76
2023/12/02 11:34:48;;;;;;;52.17;38.35;;;1.50;99.90;;;;;;5085116;28;20083;-76
2023/12/02 11:37:26;;;;;;;49.78;36.25;;;1.50;99.90;;;;;;5082076;28;20115;-76
2023/12/02 11:40:18;;;;;;;50.17;35.78;;;1.60;99.90;;;;;;5081482;28;20101;-75
2023/12/02 11:43:06;;;;;;;48.58;34.90;;;1.60;99.90;;;;;;5066409;28;20059;-76
2023/12/02 11:45:37;;;;;;;48.20;35.83;;;1.70;99.90;;;;;;5062109;28;20060;-74
2023/12/02 11:48:18;;;;;;;49.53;36.35;;;1.70;99.90;;;;;;5066683;28;20132;-75
2023/12/02 11:50:53;;;;;;;46.80;34.67;;;1.80;99.90;;;;;;5079198;28;20395;-74
2023/12/02 11:53:40;;;;;;;44.78;33.70;;;1.80;99.90;;;;;;5089468;28;20050;-75
2023/12/02 11:56:13;;;;;;;46.47;33.85;;;1.80;99.90;;;;;;5079470;28;20055;-76
2023/12/02 11:58:49;;;;;;;46.40;34.80;;;1.90;99.90;;;;;;5073172;28;20443;-76
2023/12/02 12:01:36;;;;;;;45.10;33.38;;;1.90;99.90;;;;;;5059901;28;20191;-75
2023/12/02 12:04:26;;;;;;;43.03;32.88;;;1.90;99.90;;;;;;5061756;28;20052;-75
2023/12/02 12:07:23;;;;;;;44.58;33.53;;;1.90;99.90;;;;;;5061346;28;20383;-76
2023/12/02 12:10:20;;;;;;;48.38;34.28;;;1.90;99.90;;;;;;5060038;28;20140;-76
2023/12/02 12:12:48;;;;;;;47.90;36.78;;;1.90;99.90;;;;;;5074845;28;20048;-76
2023/12/02 12:15:15;;;;;;;45.47;34.25;;;1.90;99.90;;;;;;5073679;28;20056;-76
2023/12/02 12:17:40;;;;;;;48.38;34.85;;;1.90;99.90;;;;;;5075148;28;20407;-75
2023/12/02 12:20:25;;;;;;;49.67;33.80;;;1.90;99.90;;;;;;5072148;28;20051;-76
2023/12/02 12:22:51;;;;;;;47.28;33.70;;;2.00;99.90;;;;;;5063380;28;20118;-75
2023/12/02 12:25:17;;;;;;;50.03;35.50;;;2.00;99.90;;;;;;5083660;28;20044;-76
2023/12/02 12:27:43;;;;;;;49.67;35.45;;;2.00;99.90;;;;;;5074877;28;20441;-75
2023/12/02 12:30:09;;;;;;;45.08;33.42;;;2.00;99.90;;;;;;5075875;28;20047;-76
2023/12/02 12:32:36;;;;;;;46.90;35.28;;;2.00;99.90;;;;;;5077544;28;20059;-76
2023/12/02 12:35:10;;;;;;;45.72;33.08;;;2.00;99.90;;;;;;5078736;28;20212;-76
2023/12/02 12:37:36;;;;;;;46.50;33.13;;;2.00;99.90;;;;;;5073446;28;20055;-76
2023/12/02 12:40:03;;;;;;;47.65;33.35;;;2.10;99.90;;;;;;5058756;28;20037;-75